sensor_id;sensor_type;location;lat;lon;timestamp;temperature;humidity
47626;DHT22;33342;45.574;9.252;2023-03-01T00:01:16;8.90;99.90
47626;DHT22;33342;45.574;9.252;2023-03-01T00:03:44;8.90;99.90
47626;DHT22;33342;45.574;9.252;2023-03-01T00:06:11;8.90;99.90
47626;DHT22;33342;45.574;9.252;2023-03-01T00:08:38;8.90;99.90
47626;DHT22;33342;45.574;9.252;2023-03-01T00:11:16;8.90;99.90
47626;DHT22;33342;45.574;9.252;2023-03-01T00:13:44;8.90;99.90
47626;DHT22;33342;45.574;9.252;2023-03-01T00:16:17;8.90;99.90
47626;DHT22;33342;45.574;9.252;2023-03-01T00:18:44;8.90;99.90
47626;DHT22;33342;45.574;9.252;2023-03-01T00:21:12;8.80;99.90
47626;DHT22;33342;45.574;9.252;2023-03-01T00:23:39;8.80;99.90
47626;DHT22;33342;45.574;9.252;2023-03-01T00:26:10;8.80;99.90
47626;DHT22;33342;45.574;9.252;2023-03-01T00:28:39;8.80;99.90
47626;DHT22;33342;45.574;9.252;2023-03-01T00:31:09;8.80;99.90
47626;DHT22;33342;45.574;9.252;2023-03-01T00:33:38;8.80;99.90
47626;DHT22;33342;45.574;9.252;2023-03-01T00:36:06;8.80;99.90
47626;DHT22;33342;45.574;9.252;2023-03-01T00:38:38;8.70;99.90
47626;DHT22;33342;45.574;9.252;2023-03-01T00:41:08;8.70;99.90
47626;DHT22;33342;45.574;9.252;2023-03-01T00:43:36;8.70;99.90
47626;DHT22;33342;45.574;9.252;2023-03-01T00:46:09;8.70;99.90
47626;DHT22;33342;45.574;9.252;2023-03-01T00:48:37;8.60;99.90
47626;DHT22;33342;45.574;9.252;2023-03-01T00:53:33;8.60;99.90
47626;DHT22;33342;45.574;9.252;2023-03-01T00:56:00;8.50;99.90
47626;DHT22;33342;45.574;9.252;2023-03-01T00:58:28;8.50;99.90
47626;DHT22;33342;45.574;9.252;2023-03-01T01:00:55;8.50;99.90
47626;DHT22;33342;45.574;9.252;2023-03-01T01:03:22;8.50;99.90
47626;DHT22;33342;45.574;9.252;2023-03-01T01:05:52;8.50;99.90
47626;DHT22;33342;45.574;9.252;2023-03-01T01:08:20;8.50;99.90
47626;DHT22;33342;45.574;9.252;2023-03-01T01:10:47;8.40;99.90
47626;DHT22;33342;45.574;9.252;2023-03-01T01:13:14;8.40;99.90
47626;DHT22;33342;45.574;9.252;2023-03-01T01:15:41;8.40;99.90
47626;DHT22;33342;45.574;9.252;2023-03-01T01:18:09;8.40;99.90
47626;DHT22;33342;45.574;9.252;2023-03-01T01:20:36;8.40;99.90
47626;DHT22;33342;45.574;9.252;2023-03-01T01:23:05;8.40;99.90
47626;DHT22;33342;45.574;9.252;2023-03-01T01:25:35;8.40;99.90
47626;DHT22;33342;45.574;9.252;2023-03-01T01:28:03;8.40;99.90
47626;DHT22;33342;45.574;9.252;2023-03-01T01:30:30;8.40;99.90
47626;DHT22;33342;45.574;9.252;2023-03-01T01:32:57;8.40;99.90
47626;DHT22;33342;45.574;9.252;2023-03-01T01:35:24;8.40;99.90
47626;DHT22;33342;45.574;9.252;2023-03-01T01:37:51;8.30;99.90
47626;DHT22;33342;45.574;9.252;2023-03-01T01:40:18;8.40;99.90
47626;DHT22;33342;45.574;9.252;2023-03-01T01:42:45;8.30;99.90
47626;DHT22;33342;45.574;9.252;2023-03-01T01:47:48;8.30;99.90
47626;DHT22;33342;45.574;9.252;2023-03-01T01:50:17;8.30;99.90
47626;DHT22;33342;45.574;9.252;2023-03-01T01:52:45;8.30;99.90
47626;DHT22;33342;45.574;9.252;2023-03-01T01:55:22;8.30;99.90
47626;DHT22;33342;45.574;9.252;2023-03-01T01:58:02;8.30;99.90
47626;DHT22;33342;45.574;9.252;2023-03-01T02:00:32;8.30;99.90
47626;DHT22;33342;45.574;9.252;2023-03-01T02:03:11;8.30;99.90
47626;DHT22;33342;45.574;9.252;2023-03-01T02:06:32;8.30;99.90
47626;DHT22;33342;45.574;9.252;2023-03-01T02:08:38;8.40;99.90
47626;DHT22;33342;45.574;9.252;2023-03-01T02:11:08;8.40;99.90
47626;DHT22;33342;45.574;9.252;2023-03-01T02:13:35;8.30;99.90
47626;DHT22;33342;45.574;9.252;2023-03-01T02:16:05;8.40;99.90
47626;DHT22;33342;45.574;9.252;2023-03-01T02:18:35;8.40;99.90
47626;DHT22;33342;45.574;9.252;2023-03-01T02:23:38;8.40;99.90
47626;DHT22;33342;45.574;9.252;2023-03-01T02:26:23;8.40;99.90
47626;DHT22;33342;45.574;9.252;2023-03-01T02:28:52;8.40;99.90
47626;DHT22;33342;45.574;9.252;2023-03-01T02:31:20;8.30;99.90
47626;DHT22;33342;45.574;9.252;2023-03-01T02:34:18;8.30;99.90
47626;DHT22;33342;45.574;9.252;2023-03-01T02:36:51;8.30;99.90
47626;DHT22;33342;45.574;9.252;2023-03-01T02:39:27;8.30;99.90
47626;DHT22;33342;45.574;9.252;2023-03-01T02:41:56;8.30;99.90
47626;DHT22;33342;45.574;9.252;2023-03-01T02:44:25;8.30;99.90
47626;DHT22;33342;45.574;9.252;2023-03-01T02:46:55;8.20;99.90
47626;DHT22;33342;45.574;9.252;2023-03-01T02:49:26;8.20;99.90
47626;DHT22;33342;45.574;9.252;2023-03-01T02:54:33;8.10;99.90
47626;DHT22;33342;45.574;9.252;2023-03-01T02:57:01;8.10;99.90
47626;DHT22;33342;45.574;9.252;2023-03-01T02:59:33;8.10;99.90
47626;DHT22;33342;45.574;9.252;2023-03-01T03:02:26;8.10;99.90
47626;DHT22;33342;45.574;9.252;2023-03-01T03:05:18;8.10;99.90
47626;DHT22;33342;45.574;9.252;2023-03-01T03:07:47;8.00;99.90
47626;DHT22;33342;45.574;9.252;2023-03-01T03:10:18;8.00;99.90
47626;DHT22;33342;45.574;9.252;2023-03-01T03:13:01;8.00;99.90
47626;DHT22;33342;45.574;9.252;2023-03-01T03:15:30;7.90;99.90
47626;DHT22;33342;45.574;9.252;2023-03-01T03:17:58;7.90;99.90
47626;DHT22;33342;45.574;9.252;2023-03-01T03:20:27;7.90;99.90
47626;DHT22;33342;45.574;9.252;2023-03-01T03:22:56;7.80;99.90
47626;DHT22;33342;45.574;9.252;2023-03-01T03:25:23;7.80;99.90
47626;DHT22;33342;45.574;9.252;2023-03-01T03:27:52;7.90;99.90
47626;DHT22;33342;45.574;9.252;2023-03-01T03:30:31;7.80;99.90
47626;DHT22;33342;45.574;9.252;2023-03-01T03:32:59;7.80;99.90
47626;DHT22;33342;45.574;9.252;2023-03-01T03:35:27;7.80;99.90
47626;DHT22;33342;45.574;9.252;2023-03-01T03:37:58;7.80;99.90
47626;DHT22;33342;45.574;9.252;2023-03-01T03:40:31;7.80;99.90
47626;DHT22;33342;45.574;9.252;2023-03-01T03:42:58;7.80;99.90
47626;DHT22;33342;45.574;9.252;2023-03-01T03:45:25;7.70;99.90
47626;DHT22;33342;45.574;9.252;2023-03-01T03:47:52;7.70;99.90
47626;DHT22;33342;45.574;9.252;2023-03-01T03:50:20;7.70;99.90
47626;DHT22;33342;45.574;9.252;2023-03-01T03:52:47;7.70;99.90
47626;DHT22;33342;45.574;9.252;2023-03-01T03:55:14;7.60;99.90
47626;DHT22;33342;45.574;9.252;2023-03-01T03:57:47;7.60;99.90
47626;DHT22;33342;45.574;9.252;2023-03-01T04:00:21;7.60;99.90
47626;DHT22;33342;45.574;9.252;2023-03-01T04:02:50;7.60;99.90
47626;DHT22;33342;45.574;9.252;2023-03-01T04:05:18;7.60;99.90
47626;DHT22;33342;45.574;9.252;2023-03-01T04:07:46;7.50;99.90
47626;DHT22;33342;45.574;9.252;2023-03-01T04:10:16;7.50;99.90
47626;DHT22;33342;45.574;9.252;2023-03-01T04:12:43;7.50;99.90
47626;DHT22;33342;45.574;9.252;2023-03-01T04:15:11;7.50;99.90
47626;DHT22;33342;45.574;9.252;2023-03-01T04:17:46;7.50;99.90
47626;DHT22;33342;45.574;9.252;2023-03-01T04:20:17;7.50;99.90
47626;DHT22;33342;45.574;9.252;2023-03-01T04:22:44;7.50;99.90
47626;DHT22;33342;45.574;9.252;2023-03-01T04:25:14;7.50;99.90
47626;DHT22;33342;45.574;9.252;2023-03-01T04:27:41;7.50;99.90
47626;DHT22;33342;45.574;9.252;2023-03-01T04:30:09;7.50;99.90
47626;DHT22;33342;45.574;9.252;2023-03-01T04:32:36;7.50;99.90
47626;DHT22;33342;45.574;9.252;2023-03-01T04:35:03;7.50;99.90
47626;DHT22;33342;45.574;9.252;2023-03-01T04:37:31;7.50;99.90
47626;DHT22;33342;45.574;9.252;2023-03-01T04:39:58;7.50;99.90
47626;DHT22;33342;45.574;9.252;2023-03-01T04:42:25;7.50;99.90
47626;DHT22;33342;45.574;9.252;2023-03-01T04:44:52;7.40;99.90
47626;DHT22;33342;45.574;9.252;2023-03-01T04:47:19;7.40;99.90
47626;DHT22;33342;45.574;9.252;2023-03-01T04:49:46;7.40;99.90
47626;DHT22;33342;45.574;9.252;2023-03-01T04:52:13;7.40;99.90
47626;DHT22;33342;45.574;9.252;2023-03-01T04:54:40;7.40;99.90
47626;DHT22;33342;45.574;9.252;2023-03-01T04:57:07;7.40;99.90
47626;DHT22;33342;45.574;9.252;2023-03-01T04:59:34;7.40;99.90
47626;DHT22;33342;45.574;9.252;2023-03-01T05:02:02;7.40;99.90
47626;DHT22;33342;45.574;9.252;2023-03-01T05:04:30;7.40;99.90
47626;DHT22;33342;45.574;9.252;2023-03-01T05:06:57;7.40;99.90
47626;DHT22;33342;45.574;9.252;2023-03-01T05:09:25;7.40;99.90
47626;DHT22;33342;45.574;9.252;2023-03-01T05:11:52;7.30;99.90
47626;DHT22;33342;45.574;9.252;2023-03-01T05:14:19;7.30;99.90
47626;DHT22;33342;45.574;9.252;2023-03-01T05:16:46;7.30;99.90
47626;DHT22;33342;45.574;9.252;2023-03-01T05:19:13;7.30;99.90
47626;DHT22;33342;45.574;9.252;2023-03-01T05:21:49;7.30;99.90
47626;DHT22;33342;45.574;9.252;2023-03-01T05:24:29;7.30;99.90
47626;DHT22;33342;45.574;9.252;2023-03-01T05:26:58;7.30;99.90
47626;DHT22;33342;45.574;9.252;2023-03-01T05:29:26;7.30;99.90
47626;DHT22;33342;45.574;9.252;2023-03-01T05:31:55;7.30;99.90
47626;DHT22;33342;45.574;9.252;2023-03-01T05:34:26;7.30;99.90
47626;DHT22;33342;45.574;9.252;2023-03-01T05:36:53;7.30;99.90
47626;DHT22;33342;45.574;9.252;2023-03-01T05:39:22;7.20;99.90
47626;DHT22;33342;45.574;9.252;2023-03-01T05:41:53;7.20;99.90
47626;DHT22;33342;45.574;9.252;2023-03-01T05:44:21;7.20;99.90
47626;DHT22;33342;45.574;9.252;2023-03-01T05:46:49;7.20;99.90
47626;DHT22;33342;45.574;9.252;2023-03-01T05:49:16;7.20;99.90
47626;DHT22;33342;45.574;9.252;2023-03-01T05:51:48;7.20;99.90
47626;DHT22;33342;45.574;9.252;2023-03-01T05:54:15;7.20;99.90
47626;DHT22;33342;45.574;9.252;2023-03-01T05:56:43;7.20;99.90
47626;DHT22;33342;45.574;9.252;2023-03-01T05:59:10;7.10;99.90
47626;DHT22;33342;45.574;9.252;2023-03-01T06:01:38;7.10;99.90
47626;DHT22;33342;45.574;9.252;2023-03-01T06:04:05;7.10;99.90
47626;DHT22;33342;45.574;9.252;2023-03-01T06:06:38;7.10;99.90
47626;DHT22;33342;45.574;9.252;2023-03-01T06:09:06;7.10;99.90
47626;DHT22;33342;45.574;9.252;2023-03-01T06:11:35;7.10;99.90
47626;DHT22;33342;45.574;9.252;2023-03-01T06:14:03;7.10;99.90
47626;DHT22;33342;45.574;9.252;2023-03-01T06:16:30;7.10;99.90
47626;DHT22;33342;45.574;9.252;2023-03-01T06:18:58;7.10;99.90
47626;DHT22;33342;45.574;9.252;2023-03-01T06:21:25;7.10;99.90
47626;DHT22;33342;45.574;9.252;2023-03-01T06:23:52;7.10;99.90
47626;DHT22;33342;45.574;9.252;2023-03-01T06:26:19;7.10;99.90
47626;DHT22;33342;45.574;9.252;2023-03-01T06:28:46;7.10;99.90
47626;DHT22;33342;45.574;9.252;2023-03-01T06:31:13;7.20;99.90
47626;DHT22;33342;45.574;9.252;2023-03-01T06:33:40;7.20;99.90
47626;DHT22;33342;45.574;9.252;2023-03-01T06:36:07;7.20;99.90
47626;DHT22;33342;45.574;9.252;2023-03-01T06:38:34;7.20;99.90
47626;DHT22;33342;45.574;9.252;2023-03-01T06:41:02;7.30;99.90
47626;DHT22;33342;45.574;9.252;2023-03-01T06:43:28;7.30;99.90
47626;DHT22;33342;45.574;9.252;2023-03-01T06:45:55;7.30;99.90
47626;DHT22;33342;45.574;9.252;2023-03-01T06:48:22;7.30;99.90
47626;DHT22;33342;45.574;9.252;2023-03-01T06:50:50;7.40;99.90
47626;DHT22;33342;45.574;9.252;2023-03-01T06:53:17;7.40;99.90
47626;DHT22;33342;45.574;9.252;2023-03-01T06:55:44;7.40;99.90
47626;DHT22;33342;45.574;9.252;2023-03-01T06:58:11;7.50;99.90
47626;DHT22;33342;45.574;9.252;2023-03-01T07:00:38;7.50;99.90
47626;DHT22;33342;45.574;9.252;2023-03-01T07:03:08;7.50;99.90
47626;DHT22;33342;45.574;9.252;2023-03-01T07:05:35;7.50;99.90
47626;DHT22;33342;45.574;9.252;2023-03-01T07:08:02;7.50;99.90
47626;DHT22;33342;45.574;9.252;2023-03-01T07:10:29;7.60;99.90
47626;DHT22;33342;45.574;9.252;2023-03-01T07:12:57;7.60;99.90
47626;DHT22;33342;45.574;9.252;2023-03-01T07:15:26;7.70;99.90
47626;DHT22;33342;45.574;9.252;2023-03-01T07:17:53;7.70;99.90
47626;DHT22;33342;45.574;9.252;2023-03-01T07:20:21;7.70;99.90
47626;DHT22;33342;45.574;9.252;2023-03-01T07:22:53;7.80;99.90
47626;DHT22;33342;45.574;9.252;2023-03-01T07:25:20;7.90;99.90
47626;DHT22;33342;45.574;9.252;2023-03-01T07:27:53;7.90;99.90
47626;DHT22;33342;45.574;9.252;2023-03-01T07:30:21;7.90;99.90
47626;DHT22;33342;45.574;9.252;2023-03-01T07:32:48;7.90;99.90
47626;DHT22;33342;45.574;9.252;2023-03-01T07:35:15;7.90;99.90
47626;DHT22;33342;45.574;9.252;2023-03-01T07:37:43;7.90;99.90
47626;DHT22;33342;45.574;9.252;2023-03-01T07:40:10;7.90;99.90
47626;DHT22;33342;45.574;9.252;2023-03-01T07:42:38;7.90;99.90
47626;DHT22;33342;45.574;9.252;2023-03-01T07:45:06;7.90;99.90
47626;DHT22;33342;45.574;9.252;2023-03-01T07:47:33;7.90;99.90
47626;DHT22;33342;45.574;9.252;2023-03-01T07:50:00;7.90;99.90
47626;DHT22;33342;45.574;9.252;2023-03-01T07:52:28;7.90;99.90
47626;DHT22;33342;45.574;9.252;2023-03-01T07:54:55;7.90;99.90
47626;DHT22;33342;45.574;9.252;2023-03-01T07:57:22;7.90;99.90
47626;DHT22;33342;45.574;9.252;2023-03-01T07:59:49;7.90;99.90
47626;DHT22;33342;45.574;9.252;2023-03-01T08:02:16;8.00;99.90
47626;DHT22;33342;45.574;9.252;2023-03-01T08:04:43;8.00;99.90
47626;DHT22;33342;45.574;9.252;2023-03-01T08:07:10;8.10;99.90
47626;DHT22;33342;45.574;9.252;2023-03-01T08:09:37;8.10;99.90
47626;DHT22;33342;45.574;9.252;2023-03-01T08:12:04;8.10;99.90
47626;DHT22;33342;45.574;9.252;2023-03-01T08:14:32;8.10;99.90
47626;DHT22;33342;45.574;9.252;2023-03-01T08:16:59;8.10;99.90
47626;DHT22;33342;45.574;9.252;2023-03-01T08:19:26;8.10;99.90
47626;DHT22;33342;45.574;9.252;2023-03-01T08:21:55;8.10;99.90
47626;DHT22;33342;45.574;9.252;2023-03-01T08:24:25;8.10;99.90
47626;DHT22;33342;45.574;9.252;2023-03-01T08:26:52;8.10;99.90
47626;DHT22;33342;45.574;9.252;2023-03-01T08:29:19;8.10;99.90
47626;DHT22;33342;45.574;9.252;2023-03-01T08:31:47;8.10;99.90
47626;DHT22;33342;45.574;9.252;2023-03-01T08:34:16;8.10;99.90
47626;DHT22;33342;45.574;9.252;2023-03-01T08:36:45;8.10;99.90
47626;DHT22;33342;45.574;9.252;2023-03-01T08:39:15;8.10;99.90
47626;DHT22;33342;45.574;9.252;2023-03-01T08:41:42;8.10;99.90
47626;DHT22;33342;45.574;9.252;2023-03-01T08:44:13;8.20;99.90
47626;DHT22;33342;45.574;9.252;2023-03-01T08:46:41;8.20;99.90
47626;DHT22;33342;45.574;9.252;2023-03-01T08:49:12;8.20;99.90
47626;DHT22;33342;45.574;9.252;2023-03-01T08:51:39;8.20;99.90
47626;DHT22;33342;45.574;9.252;2023-03-01T08:54:13;8.20;99.90
47626;DHT22;33342;45.574;9.252;2023-03-01T08:56:42;8.20;99.90
47626;DHT22;33342;45.574;9.252;2023-03-01T08:59:12;8.20;99.90
47626;DHT22;33342;45.574;9.252;2023-03-01T09:01:40;8.30;99.90
47626;DHT22;33342;45.574;9.252;2023-03-01T09:04:11;8.30;99.90
47626;DHT22;33342;45.574;9.252;2023-03-01T09:06:38;8.30;99.90
47626;DHT22;33342;45.574;9.252;2023-03-01T09:09:06;8.30;99.90
47626;DHT22;33342;45.574;9.252;2023-03-01T09:11:33;8.30;99.90
47626;DHT22;33342;45.574;9.252;2023-03-01T09:14:00;8.40;99.90
47626;DHT22;33342;45.574;9.252;2023-03-01T09:16:27;8.40;99.90
47626;DHT22;33342;45.574;9.252;2023-03-01T09:18:56;8.50;99.90
47626;DHT22;33342;45.574;9.252;2023-03-01T09:21:24;8.50;99.90
47626;DHT22;33342;45.574;9.252;2023-03-01T09:24:08;8.50;99.90
47626;DHT22;33342;45.574;9.252;2023-03-01T09:26:38;8.60;99.90
47626;DHT22;33342;45.574;9.252;2023-03-01T09:29:05;8.70;99.90
47626;DHT22;33342;45.574;9.252;2023-03-01T09:31:32;8.70;99.90
47626;DHT22;33342;45.574;9.252;2023-03-01T09:33:59;8.80;99.90
47626;DHT22;33342;45.574;9.252;2023-03-01T09:36:26;8.80;99.90
47626;DHT22;33342;45.574;9.252;2023-03-01T09:38:54;8.90;99.90
47626;DHT22;33342;45.574;9.252;2023-03-01T09:44:07;9.00;99.90
47626;DHT22;33342;45.574;9.252;2023-03-01T09:46:46;9.00;99.90
47626;DHT22;33342;45.574;9.252;2023-03-01T09:49:24;9.00;99.90
47626;DHT22;33342;45.574;9.252;2023-03-01T09:54:38;9.00;99.90
47626;DHT22;33342;45.574;9.252;2023-03-01T09:57:16;9.10;99.90
47626;DHT22;33342;45.574;9.252;2023-03-01T10:04:52;9.10;99.90
47626;DHT22;33342;45.574;9.252;2023-03-01T10:10:10;9.20;99.90
47626;DHT22;33342;45.574;9.252;2023-03-01T10:12:43;9.30;99.90
47626;DHT22;33342;45.574;9.252;2023-03-01T10:15:33;9.30;99.90
47626;DHT22;33342;45.574;9.252;2023-03-01T10:18:11;9.30;99.90
47626;DHT22;33342;45.574;9.252;2023-03-01T10:20:53;9.30;99.90
47626;DHT22;33342;45.574;9.252;2023-03-01T10:23:22;9.30;99.90
47626;DHT22;33342;45.574;9.252;2023-03-01T10:29:04;9.40;99.90
47626;DHT22;33342;45.574;9.252;2023-03-01T10:34:13;9.50;99.90
47626;DHT22;33342;45.574;9.252;2023-03-01T10:36:42;9.50;99.90
47626;DHT22;33342;45.574;9.252;2023-03-01T10:39:18;9.50;99.90
47626;DHT22;33342;45.574;9.252;2023-03-01T10:42:17;9.50;99.90
47626;DHT22;33342;45.574;9.252;2023-03-01T10:44:48;9.50;99.90
47626;DHT22;33342;45.574;9.252;2023-03-01T10:47:23;9.50;99.90
47626;DHT22;33342;45.574;9.252;2023-03-01T10:50:35;9.60;99.90
47626;DHT22;33342;45.574;9.252;2023-03-01T10:52:59;9.60;99.90
47626;DHT22;33342;45.574;9.252;2023-03-01T10:55:38;9.60;99.90
47626;DHT22;33342;45.574;9.252;2023-03-01T10:58:18;9.70;99.90
47626;DHT22;33342;45.574;9.252;2023-03-01T11:00:49;9.70;99.90
47626;DHT22;33342;45.574;9.252;2023-03-01T11:03:21;9.80;99.90
47626;DHT22;33342;45.574;9.252;2023-03-01T11:11:22;9.90;99.90
47626;DHT22;33342;45.574;9.252;2023-03-01T11:13:56;9.90;99.90
47626;DHT22;33342;45.574;9.252;2023-03-01T11:16:35;9.90;99.90
47626;DHT22;33342;45.574;9.252;2023-03-01T11:24:13;10.00;99.90
47626;DHT22;33342;45.574;9.252;2023-03-01T11:26:44;10.00;99.90
47626;DHT22;33342;45.574;9.252;2023-03-01T11:29:35;10.10;99.90
47626;DHT22;33342;45.574;9.252;2023-03-01T11:32:15;10.10;99.90
47626;DHT22;33342;45.574;9.252;2023-03-01T11:37:26;10.20;99.90
47626;DHT22;33342;45.574;9.252;2023-03-01T11:40:03;10.20;99.90
47626;DHT22;33342;45.574;9.252;2023-03-01T11:54:13;10.40;99.90
47626;DHT22;33342;45.574;9.252;2023-03-01T11:56:50;10.40;99.90
47626;DHT22;33342;45.574;9.252;2023-03-01T12:17:58;10.60;99.90
47626;DHT22;33342;45.574;9.252;2023-03-01T12:26:20;10.70;99.90
47626;DHT22;33342;45.574;9.252;2023-03-01T12:39:55;10.90;99.90
47626;DHT22;33342;45.574;9.252;2023-03-01T12:42:35;10.90;99.90
47626;DHT22;33342;45.574;9.252;2023-03-01T12:50:57;11.00;99.90
47626;DHT22;33342;45.574;9.252;2023-03-01T12:53:37;11.10;99.90
47626;DHT22;33342;45.574;9.252;2023-03-01T12:56:10;11.10;99.90
47626;DHT22;33342;45.574;9.252;2023-03-01T13:01:39;11.20;99.90
47626;DHT22;33342;45.574;9.252;2023-03-01T13:17:57;11.10;99.90
47626;DHT22;33342;45.574;9.252;2023-03-01T13:20:34;11.20;99.90
47626;DHT22;33342;45.574;9.252;2023-03-01T13:26:10;11.20;99.90
47626;DHT22;33342;45.574;9.252;2023-03-01T13:33:50;11.30;99.90
47626;DHT22;33342;45.574;9.252;2023-03-01T13:39:04;11.30;99.90
47626;DHT22;33342;45.574;9.252;2023-03-01T13:46:56;11.50;99.90
47626;DHT22;33342;45.574;9.252;2023-03-01T13:49:31;11.50;99.90
47626;DHT22;33342;45.574;9.252;2023-03-01T13:55:01;11.50;99.90
47626;DHT22;33342;45.574;9.252;2023-03-01T13:57:34;11.60;99.90
47626;DHT22;33342;45.574;9.252;2023-03-01T14:00:03;11.60;99.90
47626;DHT22;33342;45.574;9.252;2023-03-01T14:02:33;11.60;99.90
47626;DHT22;33342;45.574;9.252;2023-03-01T14:05:03;11.60;99.90
47626;DHT22;33342;45.574;9.252;2023-03-01T14:07:30;11.60;99.90
47626;DHT22;33342;45.574;9.252;2023-03-01T14:10:00;11.50;99.90
47626;DHT22;33342;45.574;9.252;2023-03-01T14:12:44;11.40;99.90
47626;DHT22;33342;45.574;9.252;2023-03-01T14:18:03;11.50;99.90
47626;DHT22;33342;45.574;9.252;2023-03-01T14:20:37;11.40;99.90
47626;DHT22;33342;45.574;9.252;2023-03-01T14:23:11;11.40;99.90
47626;DHT22;33342;45.574;9.252;2023-03-01T14:25:56;11.40;99.90
47626;DHT22;33342;45.574;9.252;2023-03-01T14:28:28;11.40;99.90
47626;DHT22;33342;45.574;9.252;2023-03-01T14:30:58;11.40;99.90
47626;DHT22;33342;45.574;9.252;2023-03-01T14:33:28;11.40;99.90
47626;DHT22;33342;45.574;9.252;2023-03-01T14:35:57;11.30;99.90
47626;DHT22;33342;45.574;9.252;2023-03-01T14:38:31;11.30;99.90
47626;DHT22;33342;45.574;9.252;2023-03-01T14:41:02;11.30;99.90
47626;DHT22;33342;45.574;9.252;2023-03-01T14:43:32;11.30;99.90
47626;DHT22;33342;45.574;9.252;2023-03-01T14:46:00;11.30;99.90
47626;DHT22;33342;45.574;9.252;2023-03-01T14:48:28;11.30;99.90
47626;DHT22;33342;45.574;9.252;2023-03-01T14:50:56;11.30;99.90
47626;DHT22;33342;45.574;9.252;2023-03-01T14:53:28;11.30;99.90
47626;DHT22;33342;45.574;9.252;2023-03-01T14:56:03;11.30;99.90
47626;DHT22;33342;45.574;9.252;2023-03-01T14:58:32;11.30;99.90
47626;DHT22;33342;45.574;9.252;2023-03-01T15:01:02;11.20;99.90
47626;DHT22;33342;45.574;9.252;2023-03-01T15:03:42;11.20;99.90
47626;DHT22;33342;45.574;9.252;2023-03-01T15:06:12;11.20;99.90
47626;DHT22;33342;45.574;9.252;2023-03-01T15:08:44;11.10;99.90
47626;DHT22;33342;45.574;9.252;2023-03-01T15:13:50;11.10;99.90
47626;DHT22;33342;45.574;9.252;2023-03-01T15:16:29;11.10;99.90
47626;DHT22;33342;45.574;9.252;2023-03-01T15:19:00;11.10;99.90
47626;DHT22;33342;45.574;9.252;2023-03-01T15:21:36;11.10;99.90
47626;DHT22;33342;45.574;9.252;2023-03-01T15:26:43;11.10;99.90
47626;DHT22;33342;45.574;9.252;2023-03-01T15:29:18;11.10;99.90
47626;DHT22;33342;45.574;9.252;2023-03-01T15:32:06;11.10;99.90
47626;DHT22;33342;45.574;9.252;2023-03-01T15:34:35;11.10;99.90
47626;DHT22;33342;45.574;9.252;2023-03-01T15:37:06;11.00;99.90
47626;DHT22;33342;45.574;9.252;2023-03-01T15:39:52;11.00;99.90
47626;DHT22;33342;45.574;9.252;2023-03-01T15:45:09;11.00;99.90
47626;DHT22;33342;45.574;9.252;2023-03-01T15:47:39;11.00;99.90
47626;DHT22;33342;45.574;9.252;2023-03-01T15:50:20;11.00;99.90
47626;DHT22;33342;45.574;9.252;2023-03-01T15:52:48;11.00;99.90
47626;DHT22;33342;45.574;9.252;2023-03-01T15:57:50;11.00;99.90
47626;DHT22;33342;45.574;9.252;2023-03-01T16:00:24;10.90;99.90
47626;DHT22;33342;45.574;9.252;2023-03-01T16:02:51;10.90;99.90
47626;DHT22;33342;45.574;9.252;2023-03-01T16:05:22;10.90;99.90
47626;DHT22;33342;45.574;9.252;2023-03-01T16:07:51;10.90;99.90
47626;DHT22;33342;45.574;9.252;2023-03-01T16:10:19;10.90;99.90
47626;DHT22;33342;45.574;9.252;2023-03-01T16:12:46;10.90;99.90
47626;DHT22;33342;45.574;9.252;2023-03-01T16:17:50;10.90;99.90
47626;DHT22;33342;45.574;9.252;2023-03-01T16:20:22;10.90;99.90
47626;DHT22;33342;45.574;9.252;2023-03-01T16:22:59;10.90;99.90
47626;DHT22;33342;45.574;9.252;2023-03-01T16:25:27;10.90;99.90
47626;DHT22;33342;45.574;9.252;2023-03-01T16:27:55;10.90;99.90
47626;DHT22;33342;45.574;9.252;2023-03-01T16:30:23;10.90;99.90
47626;DHT22;33342;45.574;9.252;2023-03-01T16:32:50;10.90;99.90
47626;DHT22;33342;45.574;9.252;2023-03-01T16:35:20;10.90;99.90
47626;DHT22;33342;45.574;9.252;2023-03-01T16:37:48;10.80;99.90
47626;DHT22;33342;45.574;9.252;2023-03-01T16:40:24;10.80;99.90
47626;DHT22;33342;45.574;9.252;2023-03-01T16:42:53;10.80;99.90
47626;DHT22;33342;45.574;9.252;2023-03-01T16:45:21;10.80;99.90
47626;DHT22;33342;45.574;9.252;2023-03-01T16:47:52;10.80;99.90
47626;DHT22;33342;45.574;9.252;2023-03-01T16:50:22;10.80;99.90
47626;DHT22;33342;45.574;9.252;2023-03-01T16:52:50;10.80;99.90
47626;DHT22;33342;45.574;9.252;2023-03-01T16:55:17;10.80;99.90
47626;DHT22;33342;45.574;9.252;2023-03-01T16:57:44;10.80;99.90
47626;DHT22;33342;45.574;9.252;2023-03-01T17:00:12;10.80;99.90
47626;DHT22;33342;45.574;9.252;2023-03-01T17:02:41;10.70;99.90
47626;DHT22;33342;45.574;9.252;2023-03-01T17:05:09;10.70;99.90
47626;DHT22;33342;45.574;9.252;2023-03-01T17:07:38;10.70;99.90
47626;DHT22;33342;45.574;9.252;2023-03-01T17:10:07;10.70;99.90
47626;DHT22;33342;45.574;9.252;2023-03-01T17:12:38;10.70;99.90
47626;DHT22;33342;45.574;9.252;2023-03-01T17:15:06;10.70;99.90
47626;DHT22;33342;45.574;9.252;2023-03-01T17:17:33;10.60;99.90
47626;DHT22;33342;45.574;9.252;2023-03-01T17:20:01;10.60;99.90
47626;DHT22;33342;45.574;9.252;2023-03-01T17:22:30;10.70;99.90
47626;DHT22;33342;45.574;9.252;2023-03-01T17:24:57;10.60;99.90
47626;DHT22;33342;45.574;9.252;2023-03-01T17:27:24;10.60;99.90
47626;DHT22;33342;45.574;9.252;2023-03-01T17:29:51;10.50;99.90
47626;DHT22;33342;45.574;9.252;2023-03-01T17:32:19;10.50;99.90
47626;DHT22;33342;45.574;9.252;2023-03-01T17:34:46;10.50;99.90
47626;DHT22;33342;45.574;9.252;2023-03-01T17:37:13;10.50;99.90
47626;DHT22;33342;45.574;9.252;2023-03-01T17:39:40;10.50;99.90
47626;DHT22;33342;45.574;9.252;2023-03-01T17:42:08;10.50;99.90
47626;DHT22;33342;45.574;9.252;2023-03-01T17:44:34;10.40;99.90
47626;DHT22;33342;45.574;9.252;2023-03-01T17:47:03;10.40;99.90
47626;DHT22;33342;45.574;9.252;2023-03-01T17:49:31;10.30;99.90
47626;DHT22;33342;45.574;9.252;2023-03-01T17:51:58;10.20;99.90
47626;DHT22;33342;45.574;9.252;2023-03-01T17:54:25;10.10;99.90
47626;DHT22;33342;45.574;9.252;2023-03-01T17:56:53;10.00;99.90
47626;DHT22;33342;45.574;9.252;2023-03-01T17:59:21;9.90;99.90
47626;DHT22;33342;45.574;9.252;2023-03-01T18:01:48;9.90;99.90
47626;DHT22;33342;45.574;9.252;2023-03-01T18:04:15;9.90;99.90
47626;DHT22;33342;45.574;9.252;2023-03-01T18:06:44;9.90;99.90
47626;DHT22;33342;45.574;9.252;2023-03-01T18:09:11;9.90;99.90
47626;DHT22;33342;45.574;9.252;2023-03-01T18:11:38;9.90;99.90
47626;DHT22;33342;45.574;9.252;2023-03-01T18:14:05;9.80;99.90
47626;DHT22;33342;45.574;9.252;2023-03-01T18:16:32;9.80;99.90
47626;DHT22;33342;45.574;9.252;2023-03-01T18:19:00;9.80;99.90
47626;DHT22;33342;45.574;9.252;2023-03-01T18:21:31;9.80;99.90
47626;DHT22;33342;45.574;9.252;2023-03-01T18:23:58;9.70;99.90
47626;DHT22;33342;45.574;9.252;2023-03-01T18:26:26;9.70;99.90
47626;DHT22;33342;45.574;9.252;2023-03-01T18:28:54;9.60;99.90